Morehead City, NC

4:56 AM EDT on May 22, 2015 (GMT -0400)
MoreheadCityWeather.Com | | Change Station
CLOSE
Current Station
Personal Weather Station
Location: Morehead City, NC
Elevation: 10 ft
Nearby Weather Stations

Elev 10 ft 34.73 °N, 76.75 °W | Updated 18 seconds ago

Overcast
Overcast
59.9 °F
Feels Like 59.9 °F
N
11.9
Wind Variable Wind from NNW
Gusts 12.3 mph

Today
High -- | Low -- °F
--% Chance of Precip.
Yesterday
High -- | Low -- °F
Precip. -- in
5:59 AM 8:08 PM
Waxing Crescent, 19% visible
Pressure 30.00 in
Visibility 10.0 miles
Clouds Overcast 1400 ft
Dew Point 55 °F
Humidity 83%
Rainfall 0.00 in
Snow Depth Not available.
UV 0 out of 12
Pollen 5.80 out of 12
Air Quality Not available.
Flu Activity No Activity
SPECI KMRH 220827Z AUTO 01007KT 10SM OVC014 16/14 A3000 RMK AO2 T01560144 TSNO

More Conditions Fewer Conditions

Pressure 30.00 in
Visibility 10.0 miles
Clouds Overcast 1400 ft
Dew Point 55 °F
Humidity 83%
Rainfall 0.00 in
Snow Depth Not available.
UV 0 out of 12
Pollen 5.80 out of 12
Air Quality Not available.
Flu Activity No Activity
SPECI KMRH 220827Z AUTO 01007KT 10SM OVC014 16/14 A3000 RMK AO2 T01560144 TSNO

More Conditions Fewer Conditions

10-Day Weather Forecast

Almanac

Astronomy

May. 22, 2015 Rise Set
Actual Time
Civil Twilight
Nautical Twilight
Astronomical Twilight
Moon
Length of Visible Light
Length of Day
Tomorrow will be .
, % of the Moon is Illuminated

Today's Extremes

State Highs State Lows

Community

WunderPhotos

Upload Photos

1,823,197 photos uploaded!

WunderBlogs® & News

Nearby

Air Quality

  Air Quality AQ Index Pollutant
Not available.

Snow Depth

Station Depth Elevation

Earthquake Activity

City Distance Mag. Time & Date
Minimum magnitude displayed is 2.5.

Coastal Water Temperatures

Place Temperature

Stations

Nearby Weather Stations

Station Location Temp. Windchill Dew Point Humidity Wind Precip. Elev Updated Type